Deming Municipal Airport
KDMN : now visible

Airfield :











YOU CAN JOIN US ON...

 
LOGIN :

Register | Disclaimer

   EN    FR    IT 

 









Legend :    VFR   Marginal VFR   IFR   Intensive IFR   Very Intensive IFR
Visi :
Ceiling :
>= 8 km
>= 3000ft
5 to 8 km
1000 to 3000 ft
1500m to 5 km
500 to 1000 ft
800 to 1500m
200 to 500 ft
< 800m
< 200 ft
Symbols :   Thunderstorms  Fog  Heavy snow  Heavy precipitations  Wind > 20 kt






- Airport Elevation : 4314 ft


KDMN - Deming Municipal

CURRENT METAR :
  • 191753Z AUTO 09023G33KT 6SM HZ CLR 09/M05 A3021 RMK AO2 PK WND 09035/1734 SLP198 T00941050 10094 20050 50024

EXPIRED METARs :
  • 191653Z AUTO 09016G24KT 10SM CLR 08/M05 A3021 RMK AO2 PK WND 09030/1603 SLP200 T00781050
  • 191553Z AUTO 09017G29KT 10SM CLR 06/M05 A3016 RMK AO2 PK WND 07029/1550 SLP188 T00611050

TAF KDMN
Valid from the 19 at 18:00 until the 20 at 18:00 UTC


191721Z 1918/2018 08018G26KT P6SM BKN090
FM200800 07012KT P6SM VCSH SCT020 OVC040
PROB30 2008/2010 6SM -SHRA OVC020
FM201000 07012KT P6SM VCSH OVC015
PROB30 2010/2014 4SM -SHRA OVC010
FM201400 07010KT P6SM VCSH SCT010 BKN025
KZAB FIR / North America



MET'MAP, your aeronautical weather chart ! - Copyright ORBIFLY December 2007 - Disclaimer

ORBIFLY MET'MAP TEAM :

Programming & Development : Alexandra Zaïnal
Concept & original design : Baudouin d'Aumeries
Assistance for programming : Marc-Olivier Méhu
Technical & hardware support : Manuel Goepfert

Contact : metmap@orbifly.com




SOURCES & CREDITS :

   NOAA       Earth
Advisory